Airfield :
LOGIN :

Register | Disclaimer

   EN    FR    IT 

 










Legend :    VFR   Marginal VFR   IFR   Intensive IFR   Very Intensive IFR
Visi :
Ceiling :
>= 8 km
>= 3000ft
5 to 8 km
1000 to 3000 ft
1500m to 5 km
500 to 1000 ft
800 to 1500m
200 to 500 ft
< 800m
< 200 ft
Symbols :   Thunderstorms  Fog  Heavy snow  Heavy precipitations  Wind > 20 kt
SIGMETs :     Misc.  Thunderstorms  Icing  Turbulence  Mountain Waves  Volcanic Ashes







- Airport Elevation : 7 ft
- IATA code : VCE


LIPZ - Marco Polo Int. Venezia

CURRENT METAR :
  • 251420Z 16010KT CAVOK 18/11 Q1012 NOSIG

EXPIRED METARs :
  • 251350Z 15010KT CAVOK 18/12 Q1012 NOSIG
  • 251320Z 14010KT 9999 SCT070 18/12 Q1013 NOSIG
  • 251250Z 14007KT 120V190 9999 SCT070 17/12 Q1013 NOSIG
  • 251220Z 13007KT 110V180 9999 SCT070 17/12 Q1013 NOSIG
  • 251150Z 14007KT 110V180 9999 SCT040 SCT050 17/11 Q1013 NOSIG

TAF TAF LIPZ
Valid from the 25 at 12:00 until the 26 at 18:00 UTC


251100Z 2512/2618 16012KT 8000 SCT025 BKN040
TEMPO 2600/2606 3000 BR
TEMPO 2609/2615 RA
No reported NOTAMs for that airfield.



MET'MAP, your aeronautical weather chart ! - Copyright ORBIFLY December 2007 - Disclaimer

ORBIFLY MET'MAP TEAM :

Programming & Development : Alexandra Zaïnal
Concept & Development : Baudouin d'Aumeries
Co-Development & Prog : Marc-Olivier Méhu
Technical & hardware support : Manuel Goepfert

Contact : metmap@orbifly.com




SOURCES & CREDITS :

   NOAA